Time;durP1;ratioP1;P1;durP2;ratioP2;P2;SDS_P1;SDS_P2;PMS_P1;PMS_P2;Temp;Humidity;BMP_temperature;BMP_pressure;BME280_temperature;BME280_humidity;BME280_pressure;Samples;Min_cycle;Max_cycle;Signal;HPM_P1;HPM_P2
2021/04/17 00:01:40;;;;;;;17.20;7.53;;;;;;;2.75;84.82;100535.17;2133722;81;21160;-69
2021/04/17 00:04:42;;;;;;;17.12;7.67;;;;;;;2.77;84.79;100532.81;2120566;82;21200;-69
2021/04/17 00:07:43;;;;;;;13.93;6.12;;;;;;;2.81;84.75;100528.19;2137028;81;21078;-68
2021/04/17 00:10:44;;;;;;;14.95;6.22;;;;;;;2.82;84.74;100525.95;2138040;81;21152;-68
2021/04/17 00:13:46;;;;;;;15.00;6.92;;;;;;;2.86;84.70;100523.47;2137332;81;21176;-69
2021/04/17 00:16:48;;;;;;;15.72;8.35;;;;;;;2.85;84.67;100517.88;2134364;81;21184;-69
2021/04/17 00:19:54;;;;;;;21.82;8.03;;;;;;;2.89;84.66;100515.39;2138606;81;21089;-71
2021/04/17 00:22:55;;;;;;;21.75;7.90;;;;;;;2.91;84.70;100513.51;2136838;81;21105;-71
2021/04/17 00:25:56;;;;;;;17.02;7.95;;;;;;;2.89;84.66;100515.39;2138732;81;21157;-68
2021/04/17 00:28:58;;;;;;;15.58;7.22;;;;;;;2.84;84.66;100508.31;2136689;81;21133;-68
2021/04/17 00:32:02;;;;;;;14.73;7.22;;;;;;;2.84;84.69;100512.25;2135371;81;21187;-67
2021/04/17 00:35:05;;;;;;;17.65;7.60;;;;;;;2.84;84.69;100514.39;2133068;81;21117;-69
2021/04/17 00:38:06;;;;;;;13.72;7.03;;;;;;;2.84;84.63;100513.08;2133401;81;21116;-70
2021/04/17 00:41:08;;;;;;;15.95;7.05;;;;;;;2.84;84.64;100517.02;2140163;81;21197;-70
2021/04/17 00:44:10;;;;;;;16.73;8.13;;;;;;;2.86;84.66;100516.92;2136547;81;21667;-68
2021/04/17 00:47:12;;;;;;;16.07;7.80;;;;;;;2.86;84.68;100518.23;2143851;81;21592;-69
2021/04/17 00:50:15;;;;;;;16.42;8.28;;;;;;;2.86;84.75;100517.75;2126652;81;21202;-68
2021/04/17 00:53:19;;;;;;;18.37;8.48;;;;;;;2.86;84.73;100516.92;2139426;81;21611;-69
2021/04/17 00:56:22;;;;;;;15.58;8.33;;;;;;;2.86;84.78;100520.85;2139851;81;21140;-68
2021/04/17 00:59:24;;;;;;;15.85;7.78;;;;;;;2.85;84.73;100527.05;2137784;81;21122;-68
2021/04/17 01:02:34;;;;;;;16.50;7.25;;;;;;;2.83;84.76;100524.52;2136650;81;21192;-68
2021/04/17 01:05:38;;;;;;;18.23;7.65;;;;;;;2.83;84.74;100523.22;2141503;81;21212;-67
2021/04/17 01:09:07;;;;;;;17.12;7.20;;;;;;;2.85;84.77;100527.05;2138958;81;21670;-68
2021/04/17 01:12:15;;;;;;;14.40;7.50;;;;;;;2.85;84.74;100524.43;2129615;81;21189;-69
2021/04/17 01:15:18;;;;;;;18.55;7.75;;;;;;;2.84;84.74;100523.56;2136744;81;21117;-70
2021/04/17 01:18:24;;;;;;;13.40;8.20;;;;;;;2.84;84.68;100527.97;2145952;81;21176;-69
2021/04/17 01:21:26;;;;;;;17.50;8.35;;;;;;;2.86;84.78;100526.09;2143191;81;21120;-68
2021/04/17 01:24:31;;;;;;;16.67;9.03;;;;;;;2.89;84.86;100527.19;2141406;81;21730;-68
2021/04/17 01:27:33;;;;;;;13.72;8.30;;;;;;;2.86;84.75;100520.85;2131485;81;21192;-68
2021/04/17 01:30:36;;;;;;;17.67;8.45;;;;;;;2.82;84.79;100518.92;2135362;81;21141;-68
2021/04/17 01:33:42;;;;;;;15.38;7.95;;;;;;;2.81;84.77;100520.33;2141875;81;22375;-68
2021/04/17 01:36:46;;;;;;;16.00;8.08;;;;;;;2.79;84.78;100517.83;2137802;81;21204;-68
2021/04/17 01:39:47;;;;;;;18.82;8.50;;;;;;;2.78;84.81;100517.45;2138987;81;21172;-73
2021/04/17 01:42:51;;;;;;;18.50;8.08;;;;;;;2.76;84.88;100521.12;2134737;81;21164;-72
2021/04/17 01:45:54;;;;;;;17.27;8.23;;;;;;;2.73;84.94;100518.23;2135786;81;21201;-73
2021/04/17 01:49:00;;;;;;;17.05;8.28;;;;;;;2.74;85.05;100520.41;2146919;81;21183;-69
2021/04/17 01:52:03;;;;;;;19.87;9.10;;;;;;;2.79;85.16;100520.90;2133717;81;21166;-68
2021/04/17 01:55:06;;;;;;;20.08;9.45;;;;;;;2.79;85.04;100518.28;2084125;83;21168;-68
2021/04/17 01:58:09;;;;;;;25.15;10.70;;;;;;;2.80;85.04;100521.28;2088294;83;21120;-68
2021/04/17 02:01:10;;;;;;;20.65;9.45;;;;;;;2.78;85.09;100520.07;2091758;83;21216;-74
2021/04/17 02:04:12;;;;;;;19.82;8.80;;;;;;;2.77;85.16;100517.58;2137370;81;21120;-68
2021/04/17 02:07:14;;;;;;;24.70;9.85;;;;;;;2.74;85.15;100516.48;2133974;81;21183;-68
2021/04/17 02:10:15;;;;;;;19.52;9.63;;;;;;;2.73;85.22;100514.78;2131324;81;21212;-68
2021/04/17 02:13:19;;;;;;;21.57;9.80;;;;;;;2.69;85.27;100515.48;2136704;81;21150;-68
2021/04/17 02:16:35;;;;;;;29.23;10.93;;;;;;;2.67;85.28;100518.19;2139746;81;21172;-71
2021/04/17 02:19:58;;;;;;;26.23;11.05;;;;;;;2.68;85.30;100509.41;2134646;81;21173;-69
2021/04/17 02:23:01;;;;;;;25.55;10.43;;;;;;;2.68;85.49;100514.64;2137898;81;21546;-69
2021/04/17 02:26:04;;;;;;;26.00;10.20;;;;;;;2.68;85.51;100517.27;2130919;81;21687;-68
2021/04/17 02:29:09;;;;;;;27.93;10.78;;;;;;;2.69;85.63;100515.48;2137180;81;21169;-69
2021/04/17 02:32:16;;;;;;;33.85;12.18;;;;;;;2.67;85.65;100511.64;2144469;81;21144;-69
2021/04/17 02:35:18;;;;;;;24.18;11.60;;;;;;;2.65;85.76;100510.09;2135899;81;21208;-68
2021/04/17 02:38:21;;;;;;;20.70;10.63;;;;;;;2.62;85.75;100509.83;2135308;81;21525;-68
2021/04/17 02:41:22;;;;;;;26.12;11.28;;;;;;;2.63;85.76;100505.42;2069472;81;21164;-68
2021/04/17 02:44:25;;;;;;;25.82;10.90;;;;;;;2.63;85.79;100506.73;2072789;83;21656;-69
2021/04/17 02:47:27;;;;;;;27.85;10.85;;;;;;;2.64;85.79;100499.23;2070700;83;21188;-69
2021/04/17 02:50:28;;;;;;;20.20;9.50;;;;;;;2.63;85.75;100496.25;2063849;83;21193;-74
2021/04/17 02:53:30;;;;;;;20.37;10.18;;;;;;;2.67;85.82;100505.56;2073476;83;21213;-74
2021/04/17 02:56:32;;;;;;;24.52;10.35;;;;;;;2.65;85.89;100493.06;2054546;83;21660;-68
2021/04/17 02:59:33;;;;;;;30.00;11.83;;;;;;;2.63;85.90;100491.84;2077287;83;21209;-69
2021/04/17 03:02:35;;;;;;;27.17;11.08;;;;;;;2.61;85.99;100488.97;2083640;83;21613;-68
2021/04/17 03:05:36;;;;;;;22.98;10.60;;;;;;;2.58;85.99;100488.70;2041253;85;21142;-69
2021/04/17 03:08:37;;;;;;;23.35;10.03;;;;;;;2.59;86.05;100484.30;2022681;85;21145;-68
2021/04/17 03:11:38;;;;;;;19.35;10.50;;;;;;;2.58;86.09;100484.77;2037771;85;21168;-68
2021/04/17 03:14:41;;;;;;;23.65;10.90;;;;;;;2.61;86.13;100488.97;2015562;86;21229;-69
2021/04/17 03:17:42;;;;;;;22.42;9.68;;;;;;;2.60;86.19;100485.52;2079788;83;21193;-68
2021/04/17 03:20:43;;;;;;;22.82;10.23;;;;;;;2.61;86.19;100485.87;2080550;83;21207;-69
2021/04/17 03:23:44;;;;;;;22.67;10.53;;;;;;;2.64;86.12;100483.51;2045914;85;22640;-68
2021/04/17 03:26:46;;;;;;;25.45;11.63;;;;;;;2.64;86.24;100488.27;2073164;83;21206;-71
2021/04/17 03:29:48;;;;;;;21.75;11.50;;;;;;;2.63;86.14;100487.92;2075667;83;21101;-69
2021/04/17 03:32:50;;;;;;;26.68;10.78;;;;;;;2.65;86.18;100483.42;2077265;83;21224;-69
2021/04/17 03:35:51;;;;;;;21.55;10.08;;;;;;;2.67;86.17;100489.36;2075455;83;21167;-69
2021/04/17 03:38:54;;;;;;;24.18;10.23;;;;;;;2.69;86.30;100492.72;2079556;83;21191;-70
2021/04/17 03:41:56;;;;;;;21.00;10.50;;;;;;;2.71;86.18;100499.66;2081143;83;21356;-72
2021/04/17 03:44:58;;;;;;;21.68;9.40;;;;;;;2.72;86.12;100500.02;2083322;83;21068;-69
2021/04/17 03:47:59;;;;;;;19.82;9.50;;;;;;;2.73;86.15;100501.20;2079106;83;21207;-75
2021/04/17 03:51:01;;;;;;;18.92;9.60;;;;;;;2.76;86.12;100509.33;2076617;83;21119;-69
2021/04/17 03:54:03;;;;;;;20.82;10.08;;;;;;;2.77;86.07;100501.84;2080062;83;21169;-68
2021/04/17 03:57:06;;;;;;;16.65;10.15;;;;;;;2.78;86.08;100510.06;2078374;83;21143;-68
2021/04/17 04:00:11;;;;;;;19.40;10.48;;;;;;;2.80;86.09;100509.49;2063380;83;21254;-68
2021/04/17 04:03:13;;;;;;;22.67;11.85;;;;;;;2.79;86.03;100513.04;2077611;83;22015;-72
2021/04/17 04:06:14;;;;;;;18.35;10.40;;;;;;;2.76;86.04;100504.95;2082434;83;21165;-68
2021/04/17 04:09:15;;;;;;;19.57;10.70;;;;;;;2.77;86.15;100515.78;2110682;81;21192;-68
2021/04/17 04:12:17;;;;;;;18.92;10.38;;;;;;;2.77;86.07;100518.88;2088276;83;21628;-68
2021/04/17 04:15:18;;;;;;;16.75;8.33;;;;;;;2.76;86.06;100519.36;2118776;82;21224;-71
2021/04/17 04:18:20;;;;;;;21.68;9.65;;;;;;;2.78;86.15;100520.55;2131129;82;21107;-70
2021/04/17 04:21:21;;;;;;;13.40;8.95;;;;;;;2.78;86.09;100529.72;2127367;81;21208;-73
2021/04/17 04:24:23;;;;;;;19.23;8.88;;;;;;;2.78;86.06;100525.79;2122108;81;21154;-69
2021/04/17 04:27:24;;;;;;;19.95;10.70;;;;;;;2.78;86.11;100529.23;2122584;81;21512;-74
2021/04/17 04:30:26;;;;;;;19.20;10.40;;;;;;;2.83;86.20;100530.24;2082050;83;21652;-71
2021/04/17 04:33:30;;;;;;;21.40;10.05;;;;;;;2.83;86.12;100529.77;2122191;81;21137;-68
2021/04/17 04:36:31;;;;;;;15.45;9.65;;;;;;;2.82;86.12;100529.41;2120606;82;21082;-73
2021/04/17 04:39:34;;;;;;;19.45;9.00;;;;;;;2.80;86.07;100534.39;2081216;83;21509;-69
2021/04/17 04:42:36;;;;;;;18.60;9.43;;;;;;;2.78;86.04;100532.34;2119995;82;21136;-70
2021/04/17 04:45:39;;;;;;;16.00;9.45;;;;;;;2.79;86.10;100534.87;2129064;82;21494;-68
2021/04/17 04:48:43;;;;;;;16.25;8.70;;;;;;;2.84;86.13;100532.73;2131651;82;21181;-67
2021/04/17 04:51:44;;;;;;;15.75;8.45;;;;;;;2.84;86.12;100533.22;2127695;82;21204;-68
2021/04/17 04:54:46;;;;;;;13.18;8.25;;;;;;;2.85;86.08;100533.13;2126980;81;21202;-67
2021/04/17 04:57:47;;;;;;;14.50;8.75;;;;;;;2.87;86.11;100531.24;2124014;81;21133;-69
2021/04/17 05:00:49;;;;;;;17.73;8.73;;;;;;;2.90;86.10;100537.58;2130818;81;21160;-68
2021/04/17 05:03:51;;;;;;;16.75;9.93;;;;;;;2.88;86.08;100536.01;2137220;81;21158;-70
2021/04/17 05:06:52;;;;;;;16.45;10.00;;;;;;;2.86;86.07;100538.72;2121452;82;21223;-69
2021/04/17 05:09:53;;;;;;;14.78;9.13;;;;;;;2.86;86.13;100541.34;2117059;82;21493;-67
2021/04/17 05:12:55;;;;;;;17.90;8.70;;;;;;;2.85;86.05;100540.98;2131453;81;21159;-68
2021/04/17 05:15:56;;;;;;;13.90;8.65;;;;;;;2.84;86.07;100539.29;2122027;81;21197;-70
2021/04/17 05:18:58;;;;;;;15.75;8.88;;;;;;;2.82;86.05;100543.83;2131119;81;21141;-71
2021/04/17 05:21:59;;;;;;;15.65;9.08;;;;;;;2.87;86.19;100543.04;2131259;82;21096;-69
2021/04/17 05:25:01;;;;;;;14.47;8.53;;;;;;;2.90;86.16;100540.64;2117347;81;21179;-71
2021/04/17 05:28:04;;;;;;;16.80;9.20;;;;;;;2.92;86.19;100544.01;2138637;81;21153;-69
2021/04/17 05:31:05;;;;;;;19.45;9.98;;;;;;;2.90;86.20;100546.75;2139587;81;21593;-69
2021/04/17 05:34:07;;;;;;;22.37;11.18;;;;;;;2.90;86.20;100546.75;2130645;81;21106;-69
2021/04/17 05:37:08;;;;;;;17.70;11.25;;;;;;;2.90;86.27;100545.89;2123791;82;21604;-70
2021/04/17 05:40:11;;;;;;;21.57;10.98;;;;;;;2.89;86.28;100542.91;2130099;81;21196;-69
2021/04/17 05:43:12;;;;;;;17.95;11.43;;;;;;;2.89;86.29;100545.05;2140288;81;21115;-69
2021/04/17 05:46:15;;;;;;;18.35;11.22;;;;;;;2.91;86.29;100543.66;2135154;80;21179;-75
2021/04/17 05:49:16;;;;;;;20.50;11.05;;;;;;;2.94;86.35;100543.44;2144780;81;21770;-70
2021/04/17 05:52:18;;;;;;;17.82;9.83;;;;;;;2.97;86.33;100543.22;2136423;81;21129;-71
2021/04/17 05:55:19;;;;;;;17.62;10.65;;;;;;;2.98;86.31;100549.30;2144527;81;22210;-76
2021/04/17 05:58:21;;;;;;;20.45;10.95;;;;;;;3.00;86.32;100556.11;2067095;83;21106;-70
2021/04/17 06:01:25;;;;;;;19.52;11.15;;;;;;;3.00;86.29;100556.11;2068979;83;21088;-70
2021/04/17 06:04:26;;;;;;;19.98;10.82;;;;;;;3.03;86.29;100553.75;2048462;84;21649;-74
2021/04/17 06:07:28;;;;;;;20.30;11.60;;;;;;;3.05;86.30;100557.11;2091955;83;21110;-71
2021/04/17 06:10:29;;;;;;;22.58;12.40;;;;;;;3.00;86.28;100553.97;2089885;83;21150;-69
2021/04/17 06:13:31;;;;;;;27.75;14.58;;;;;;;3.00;86.40;100552.66;2087124;83;21605;-70
2021/04/17 06:16:33;;;;;;;22.95;14.55;;;;;;;2.99;86.47;100558.38;2083657;83;21189;-70
2021/04/17 06:19:34;;;;;;;22.60;13.03;;;;;;;3.00;86.47;100557.42;2089451;83;21114;-71
2021/04/17 06:22:36;;;;;;;23.65;12.90;;;;;;;2.98;86.44;100551.44;2090060;83;21171;-74
2021/04/17 06:25:37;;;;;;;23.70;13.75;;;;;;;2.95;86.45;100550.82;2087109;83;21129;-68
2021/04/17 06:28:38;;;;;;;26.20;14.30;;;;;;;2.96;86.58;100553.80;2046818;84;21126;-73
2021/04/17 06:31:40;;;;;;;24.47;14.28;;;;;;;2.97;86.74;100555.49;2084248;83;21168;-69
2021/04/17 06:34:43;;;;;;;21.07;12.18;;;;;;;3.00;86.82;100553.97;2081235;83;21146;-71
2021/04/17 06:37:47;;;;;;;23.80;13.20;;;;;;;3.06;86.93;100547.81;2049794;84;21173;-71
2021/04/17 06:40:51;;;;;;;23.12;12.82;;;;;;;3.08;86.78;100535.44;2087892;83;21212;-71
2021/04/17 06:43:54;;;;;;;24.27;13.55;;;;;;;3.17;86.92;100543.13;2093127;83;21616;-73
2021/04/17 06:46:55;;;;;;;25.85;14.53;;;;;;;3.18;86.75;100539.54;2130387;81;21187;-71
2021/04/17 06:49:58;;;;;;;31.17;15.90;;;;;;;3.19;86.70;100549.58;2135103;81;21157;-71
2021/04/17 06:53:07;;;;;;;26.45;15.58;;;;;;;3.21;86.83;100548.53;2126546;81;21176;-71
2021/04/17 06:56:09;;;;;;;26.57;14.83;;;;;;;3.19;86.67;100553.52;2135308;81;21157;-70
2021/04/17 06:59:11;;;;;;;25.37;15.03;;;;;;;3.20;86.73;100548.63;2129637;81;21212;-70
2021/04/17 07:02:18;;;;;;;26.75;15.23;;;;;;;3.21;86.70;100560.78;2112392;81;21624;-71
2021/04/17 07:05:20;;;;;;;27.48;15.05;;;;;;;3.21;86.74;100555.53;2131767;81;21153;-71
2021/04/17 07:08:22;;;;;;;25.70;14.20;;;;;;;3.21;86.75;100555.53;2135215;82;21700;-75
2021/04/17 07:11:23;;;;;;;28.17;14.20;;;;;;;3.26;86.82;100556.05;2136359;81;21189;-71
2021/04/17 07:14:25;;;;;;;24.55;14.90;;;;;;;3.29;86.78;100566.32;2129965;81;21133;-73
2021/04/17 07:17:32;;;;;;;24.75;14.63;;;;;;;3.29;86.74;100557.98;2133853;81;21681;-71
2021/04/17 07:20:34;;;;;;;27.63;14.50;;;;;;;3.33;86.79;100563.86;2131780;81;21620;-72
2021/04/17 07:23:39;;;;;;;26.87;15.68;;;;;;;3.34;86.78;100561.59;2132805;81;21664;-73
2021/04/17 07:26:42;;;;;;;27.22;15.05;;;;;;;3.38;86.79;100556.51;2132786;81;21185;-71
2021/04/17 07:29:44;;;;;;;26.55;15.38;;;;;;;3.41;86.69;100557.59;2131483;80;21896;-73
2021/04/17 07:33:14;;;;;;;24.55;13.83;;;;;;;3.42;86.65;100554.02;2133380;81;21167;-71
2021/04/17 07:36:16;;;;;;;24.30;14.15;;;;;;;3.41;86.65;100564.16;2133034;81;21605;-74
2021/04/17 07:39:40;;;;;;;23.50;13.55;;;;;;;3.44;86.68;100565.25;2134862;81;21172;-73
2021/04/17 07:42:42;;;;;;;25.40;14.43;;;;;;;3.44;86.57;100565.73;2113250;82;21185;-72
2021/04/17 07:45:44;;;;;;;23.27;14.10;;;;;;;3.48;86.60;100578.97;2110928;82;21193;-75
2021/04/17 07:48:46;;;;;;;22.27;13.85;;;;;;;3.55;86.67;100567.94;2111719;82;21150;-72
2021/04/17 07:52:08;;;;;;;24.63;14.53;;;;;;;3.53;86.40;100563.27;2115681;82;21559;-72
2021/04/17 07:55:11;;;;;;;30.88;16.93;;;;;;;3.55;86.43;100569.25;2107031;82;21142;-76
2021/04/17 07:58:13;;;;;;;21.93;13.15;;;;;;;3.57;86.39;100573.05;2112682;82;21163;-71
2021/04/17 08:01:17;;;;;;;23.10;13.85;;;;;;;3.61;86.35;100573.70;2109373;81;21631;-71
2021/04/17 08:04:28;;;;;;;25.77;14.55;;;;;;;3.63;86.29;100571.78;2111573;82;21168;-72
2021/04/17 08:07:33;;;;;;;24.87;13.98;;;;;;;3.67;86.29;100566.69;2109237;82;21155;-71
2021/04/17 08:10:35;;;;;;;21.07;12.73;;;;;;;3.71;86.19;100574.69;2103255;82;21179;-71
2021/04/17 08:13:42;;;;;;;25.25;15.05;;;;;;;3.74;86.12;100574.46;2103764;82;21125;-70
2021/04/17 08:16:44;;;;;;;22.93;13.60;;;;;;;3.80;86.23;100573.56;2107970;82;21677;-71
2021/04/17 08:19:46;;;;;;;24.67;14.53;;;;;;;3.87;86.12;100571.80;2101958;82;21173;-72
2021/04/17 08:22:52;;;;;;;26.35;14.98;;;;;;;3.90;86.10;100571.08;2107997;81;21632;-72
2021/04/17 08:25:55;;;;;;;24.52;14.50;;;;;;;3.91;86.09;100575.38;2105613;82;21175;-79
2021/04/17 08:28:56;;;;;;;27.80;15.48;;;;;;;3.95;86.08;100570.27;2105962;82;21161;-75
2021/04/17 08:31:58;;;;;;;22.80;13.40;;;;;;;4.03;86.13;100574.48;2102531;82;21165;-71
2021/04/17 08:35:19;;;;;;;23.90;13.62;;;;;;;4.14;86.08;100579.41;2107524;82;21502;-71
2021/04/17 08:38:21;;;;;;;25.20;13.70;;;;;;;4.25;86.03;100572.42;2106603;82;21156;-73
2021/04/17 08:41:42;;;;;;;25.12;13.88;;;;;;;4.32;85.69;100570.16;2110177;82;21136;-75
2021/04/17 08:44:47;;;;;;;25.60;15.25;;;;;;;4.30;85.25;100568.11;2121992;82;21164;-70
2021/04/17 08:47:53;;;;;;;26.33;14.78;;;;;;;4.36;85.50;100566.81;2113522;82;21148;-72
2021/04/17 08:50:56;;;;;;;27.90;15.60;;;;;;;4.42;85.43;100567.66;2072600;84;21165;-70
2021/04/17 08:54:06;;;;;;;28.62;15.95;;;;;;;4.40;85.32;100569.11;2044810;84;21170;-69
2021/04/17 08:57:17;;;;;;;28.00;16.85;;;;;;;4.39;85.25;100576.64;2046671;85;21170;-70
2021/04/17 09:00:21;;;;;;;28.70;16.12;;;;;;;4.43;85.31;100573.30;2047169;85;21099;-67
2021/04/17 09:03:46;;;;;;;26.68;14.23;;;;;;;4.46;85.23;100568.64;2042707;85;21200;-70
2021/04/17 09:06:52;;;;;;;28.57;15.30;;;;;;;4.49;85.20;100571.52;2050209;85;21206;-68
2021/04/17 09:09:54;;;;;;;28.30;16.73;;;;;;;4.45;84.78;100570.08;2051592;84;21591;-67
2021/04/17 09:13:18;;;;;;;32.13;17.50;;;;;;;4.37;84.84;100568.03;2049059;85;21649;-70
2021/04/17 09:16:39;;;;;;;25.80;15.78;;;;;;;4.34;84.94;100572.69;2047494;85;21193;-67
2021/04/17 09:19:49;;;;;;;26.68;15.18;;;;;;;4.37;85.10;100571.97;2050655;85;21181;-67
2021/04/17 09:22:51;;;;;;;26.12;14.83;;;;;;;4.38;85.06;100566.23;2051458;85;21149;-67
2021/04/17 09:25:52;;;;;;;31.02;15.30;;;;;;;4.43;85.06;100564.09;2050498;85;21201;-66
2021/04/17 09:28:54;;;;;;;33.58;15.98;;;;;;;4.36;84.63;100566.81;2044828;85;21110;-69
2021/04/17 09:31:58;;;;;;;27.87;15.30;;;;;;;4.32;84.60;100564.08;2044667;85;21147;-67
2021/04/17 09:35:02;;;;;;;27.93;16.70;;;;;;;4.31;84.82;100560.61;2051371;85;21134;-66
2021/04/17 09:38:14;;;;;;;29.57;16.60;;;;;;;4.31;84.80;100566.31;2053288;85;21193;-67
2021/04/17 09:41:16;;;;;;;35.90;18.35;;;;;;;4.27;84.81;100562.61;2042267;85;21585;-67
2021/04/17 09:44:19;;;;;;;31.85;17.55;;;;;;;4.30;84.98;100562.86;2014956;86;21241;-72
2021/04/17 09:47:21;;;;;;;28.67;15.95;;;;;;;4.31;85.05;100564.55;2015628;86;21210;-73
2021/04/17 09:50:25;;;;;;;27.55;15.05;;;;;;;4.34;84.92;100556.44;2032096;85;21181;-72
2021/04/17 09:53:31;;;;;;;29.40;15.00;;;;;;;4.35;84.93;100555.47;2030525;86;21181;-72
2021/04/17 09:56:38;;;;;;;28.07;14.25;;;;;;;4.39;84.80;100562.19;1997353;86;21185;-74
2021/04/17 09:59:58;;;;;;;26.05;14.78;;;;;;;4.40;84.74;100559.91;2013809;86;21159;-73
2021/04/17 10:03:00;;;;;;;33.20;16.15;;;;;;;4.43;84.79;100562.30;2014891;86;21173;-72
2021/04/17 10:06:03;;;;;;;25.37;14.03;;;;;;;4.47;84.77;100551.07;2021234;86;21188;-72
2021/04/17 10:09:15;;;;;;;28.05;15.05;;;;;;;4.48;84.61;100558.02;2018091;86;21202;-72
2021/04/17 10:12:16;;;;;;;24.92;13.85;;;;;;;4.51;84.49;100554.33;2024094;85;21111;-71
2021/04/17 10:15:24;;;;;;;25.45;12.07;;;;;;;4.48;84.34;100554.08;2042800;85;21541;-70
2021/04/17 10:18:26;;;;;;;26.77;14.50;;;;;;;4.45;84.20;100549.89;2034333;85;21345;-72
2021/04/17 10:21:31;;;;;;;26.65;13.88;;;;;;;4.48;84.25;100544.88;2039897;85;21114;-72
2021/04/17 10:24:42;;;;;;;27.73;14.55;;;;;;;4.54;84.36;100549.66;2042498;85;21597;-69
2021/04/17 10:27:44;;;;;;;26.37;15.00;;;;;;;4.58;84.35;100556.83;2036555;85;21205;-67
2021/04/17 10:30:50;;;;;;;25.55;14.58;;;;;;;4.56;84.25;100550.39;2042437;85;21553;-68
2021/04/17 10:33:54;;;;;;;27.77;14.70;;;;;;;4.60;84.37;100553.61;2034108;85;21165;-69
2021/04/17 10:36:59;;;;;;;24.43;13.93;;;;;;;4.68;84.32;100543.35;2044787;85;21208;-68
2021/04/17 10:40:11;;;;;;;26.73;14.60;;;;;;;4.81;84.25;100547.16;2038031;85;22822;-67
2021/04/17 10:43:18;;;;;;;30.12;16.05;;;;;;;4.86;84.01;100548.48;2051580;84;21663;-67
2021/04/17 10:46:19;;;;;;;21.75;13.72;;;;;;;4.97;84.13;100545.02;2058973;84;21152;-68
2021/04/17 10:49:35;;;;;;;25.90;13.68;;;;;;;5.08;84.12;100540.23;2058167;84;21221;-67
2021/04/17 10:52:37;;;;;;;27.07;14.50;;;;;;;5.10;83.62;100544.91;2062500;84;21188;-70
2021/04/17 10:55:50;;;;;;;26.55;14.58;;;;;;;5.12;83.62;100539.02;2058680;84;21257;-72
2021/04/17 10:59:03;;;;;;;28.95;15.13;;;;;;;5.18;83.88;100538.56;2061252;83;21122;-69
2021/04/17 11:02:08;;;;;;;26.40;14.70;;;;;;;5.23;83.52;100546.90;2068728;84;22054;-70
2021/04/17 11:05:14;;;;;;;26.35;13.60;;;;;;;5.22;83.51;100545.23;2062074;84;21165;-70
2021/04/17 11:08:32;;;;;;;26.95;14.80;;;;;;;5.23;83.31;100538.17;2051260;84;21230;-71
2021/04/17 11:11:36;;;;;;;27.10;13.25;;;;;;;5.21;83.23;100541.40;2028047;84;21146;-69
2021/04/17 11:14:37;;;;;;;24.87;14.15;;;;;;;5.20;83.30;100542.37;2010757;86;21139;-69
2021/04/17 11:17:40;;;;;;;31.93;20.52;;;;;;;5.23;83.37;100543.44;2013562;87;21202;-69
2021/04/17 11:20:59;;;;;;;54.10;28.25;;;;;;;5.24;83.21;100542.50;2014086;84;21211;-69
2021/04/17 11:24:07;;;;;;;59.58;30.57;;;;;;;5.21;83.20;100535.69;2066362;84;21160;-69
2021/04/17 11:27:09;;;;;;;55.38;29.12;;;;;;;5.26;83.42;100536.13;2069338;83;21197;-70
2021/04/17 11:30:13;;;;;;;94.20;48.70;;;;;;;5.31;83.43;100537.92;2063251;84;21154;-69
2021/04/17 11:33:15;;;;;;;57.60;23.20;;;;;;;5.49;83.70;100537.39;2067078;84;21672;-71
2021/04/17 11:36:18;;;;;;;40.58;19.25;;;;;;;5.58;83.18;100533.56;2069208;84;21150;-70
2021/04/17 11:39:19;;;;;;;27.00;14.13;;;;;;;5.68;83.38;100531.00;2069970;84;21128;-69
2021/04/17 11:42:21;;;;;;;25.27;13.93;;;;;;;5.76;83.06;100527.27;2074499;83;21220;-69
2021/04/17 11:45:23;;;;;;;26.50;14.20;;;;;;;5.86;82.92;100527.36;2084948;83;21181;-71
2021/04/17 11:48:26;;;;;;;23.12;14.95;;;;;;;5.86;82.26;100528.67;2088942;83;21090;-69
2021/04/17 11:51:28;;;;;;;26.62;14.55;;;;;;;5.87;82.44;100520.28;2092919;83;21196;-69
2021/04/17 11:54:29;;;;;;;28.87;12.73;;;;;;;5.85;82.47;100533.08;2089178;83;21176;-75
2021/04/17 11:57:33;;;;;;;27.48;13.45;;;;;;;5.87;82.43;100533.45;2087777;83;22726;-73
2021/04/17 12:00:34;;;;;;;23.50;12.25;;;;;;;5.84;82.46;100540.64;2093989;83;21117;-75
2021/04/17 12:03:36;;;;;;;28.12;13.75;;;;;;;5.84;82.21;100546.39;2069204;83;21138;-72
2021/04/17 12:06:37;;;;;;;26.57;12.85;;;;;;;5.81;82.13;100550.11;2065385;83;21193;-73
2021/04/17 12:09:39;;;;;;;29.42;13.83;;;;;;;5.76;82.13;100548.81;2060279;85;21132;-72
2021/04/17 12:12:40;;;;;;;28.55;14.63;;;;;;;5.74;82.28;100543.66;2062029;83;21142;-72
2021/04/17 12:15:46;;;;;;;30.62;15.15;;;;;;;5.73;82.04;100549.06;2084104;83;21216;-72
2021/04/17 12:18:46;;;;;;;30.60;15.15;;;;;;;5.71;82.23;100556.25;2093601;83;21093;-73
2021/04/17 12:21:48;;;;;;;28.02;13.22;;;;;;;5.72;82.26;100553.98;2086638;83;21185;-75
2021/04/17 12:24:50;;;;;;;23.45;12.23;;;;;;;5.73;82.19;100553.84;2133175;81;22078;-73
2021/04/17 12:27:52;;;;;;;29.98;16.07;;;;;;;5.70;82.05;100560.69;2135923;81;21181;-75
2021/04/17 12:30:56;;;;;;;29.95;16.73;;;;;;;5.70;82.29;100558.05;2136217;81;21176;-76
2021/04/17 12:33:57;;;;;;;26.07;15.10;;;;;;;5.67;82.17;100560.10;2133101;81;22591;-76
2021/04/17 12:36:59;;;;;;;29.92;14.45;;;;;;;5.60;82.28;100557.97;2129783;81;21651;-83
2021/04/17 12:40:03;;;;;;;30.00;14.63;;;;;;;5.59;82.39;100556.77;2136763;81;21208;-87
2021/04/17 12:43:06;;;;;;;28.57;13.15;;;;;;;5.56;82.50;100557.02;2131037;81;21651;-77
2021/04/17 12:46:09;;;;;;;27.98;14.33;;;;;;;5.51;82.47;100565.75;2122101;81;21192;-75
2021/04/17 12:49:10;;;;;;;28.52;16.10;;;;;;;5.51;82.61;100561.33;2140369;81;21118;-76
2021/04/17 12:52:12;;;;;;;25.82;13.03;;;;;;;5.57;82.71;100559.50;2126319;82;21233;-77
2021/04/17 12:55:14;;;;;;;22.27;13.50;;;;;;;5.57;82.65;100554.23;2142387;81;21204;-74
2021/04/17 12:58:17;;;;;;;29.45;13.30;;;;;;;5.61;82.71;100557.48;2133693;81;21232;-74
2021/04/17 13:01:19;;;;;;;26.42;13.30;;;;;;;5.62;82.71;100555.20;2129038;81;21138;-77
2021/04/17 13:04:21;;;;;;;26.33;14.30;;;;;;;5.66;82.72;100555.33;2110996;82;21189;-74
2021/04/17 13:07:22;;;;;;;32.42;15.72;;;;;;;5.64;82.59;100549.34;2129130;81;21168;-77
2021/04/17 13:10:24;;;;;;;27.87;13.93;;;;;;;5.64;82.64;100558.55;2135878;81;21180;-75
2021/04/17 13:13:26;;;;;;;36.42;16.07;;;;;;;5.63;82.63;100555.55;2125539;81;21501;-73
2021/04/17 13:16:27;;;;;;;36.60;16.87;;;;;;;5.62;82.73;100552.56;2129907;81;21355;-78
2021/04/17 13:19:29;;;;;;;32.55;16.57;;;;;;;5.59;82.66;100558.91;2129200;81;21124;-75
2021/04/17 13:22:31;;;;;;;34.55;14.80;;;;;;;5.58;82.78;100554.62;2126181;81;21164;-74
2021/04/17 13:25:33;;;;;;;35.15;15.93;;;;;;;5.57;82.78;100558.67;2134743;81;21620;-75
2021/04/17 13:28:34;;;;;;;36.53;17.32;;;;;;;5.60;82.82;100559.74;2139423;81;21181;-76
2021/04/17 13:31:36;;;;;;;40.78;20.10;;;;;;;5.64;82.88;100554.60;2138099;81;21168;-76
2021/04/17 13:34:41;;;;;;;30.57;15.93;;;;;;;5.66;82.76;100557.09;2133909;81;21565;-78
2021/04/17 13:37:42;;;;;;;35.43;18.85;;;;;;;5.64;82.72;100562.50;2129744;81;21145;-77
2021/04/17 13:40:43;;;;;;;28.02;15.72;;;;;;;5.67;82.92;100559.62;2107555;81;21214;-75
2021/04/17 13:43:45;;;;;;;32.70;15.05;;;;;;;5.67;82.78;100564.88;2125260;81;21193;-77
2021/04/17 13:46:47;;;;;;;39.53;16.82;;;;;;;5.67;82.71;100556.98;2089420;83;21158;-75
2021/04/17 13:49:48;;;;;;;55.40;19.98;;;;;;;5.71;82.87;100557.08;2066059;84;21160;-75
2021/04/17 13:52:50;;;;;;;29.87;14.50;;;;;;;5.72;82.80;100554.82;2066941;84;21377;-75
2021/04/17 13:55:51;;;;;;;25.72;12.73;;;;;;;5.72;82.73;100556.13;2054527;84;21131;-75
2021/04/17 13:58:53;;;;;;;24.45;13.35;;;;;;;5.74;82.78;100559.45;2075448;84;21148;-77
2021/04/17 14:01:56;;;;;;;24.30;12.28;;;;;;;5.82;82.77;100561.47;2076935;83;21171;-76
2021/04/17 14:04:58;;;;;;;23.85;13.35;;;;;;;5.82;82.57;100563.63;2092662;83;21569;-75
2021/04/17 14:08:00;;;;;;;28.95;13.88;;;;;;;5.84;82.68;100562.20;2088510;83;21181;-75